Flight Track Log - Related Links

Times and Time Zones

All times are in EDT time to prevent confusion due to time zone crossing. See the N777NC flight status page for this flight to view local times or setup timezone preferences in your user account.

Time Position Orientation Groundspeed Altitude Reporting Facility
EDT Latitude Longitude Course Direction KTS MPH feet Rate Location/Type
Mon 08:36:14 AM 33.6500 -84.4667 347° North 174 200 2,300  Level Atlanta TRACON
Mon 08:37:08 AM 33.6667 -84.5333 287° West 265 305 3,800 2,200 Climbing Atlanta TRACON
Mon 08:38:14 AM 33.7333 -84.5833 328° Northwest 279 321 6,700 2,130 Climbing Atlanta TRACON
Mon 08:39:00 AM 34.0089 -84.5157 349° North  Level FlightAware Approximate
Mon 08:39:57 AM 33.8744 -84.5892 358° North 305 351 9,800  Level Atlanta Center
Mon 08:40:00 AM 34.0968 -84.5372 347° North  Level FlightAware Approximate
Mon 08:40:57 AM 33.9578 -84.5972 355° North 310 357 10,600  Level Atlanta Center
Mon 08:41:00 AM 34.1891 -84.5635 347° North  Level FlightAware Approximate
Mon 08:41:57 AM 34.0561 -84.5978 360° North 340 391 12,900  Level Atlanta Center
Mon 08:42:57 AM 34.1561 -84.6036 357° North 357 411 13,900 500 Climbing Atlanta Center
Mon 08:43:57 AM 34.2667 -84.6094 358° North 380 437 13,900 50 Level Atlanta Center
Mon 08:44:57 AM 34.3856 -84.6153 358° North 388 447 14,000 850 Climbing Atlanta Center
Mon 08:45:57 AM 34.4794 -84.6586 339° North 362 417 15,600 1,950 Climbing Atlanta Center
Mon 08:46:57 AM 34.5478 -84.7525 311° West 347 399 17,900 2,050 Climbing Atlanta Center
Mon 08:47:57 AM 34.6181 -84.8414 314° West 357 411 19,700 1,600 Climbing Atlanta Center
Mon 08:48:57 AM 34.6947 -84.9181 321° Northwest 357 411 21,100 1,200 Climbing Atlanta Center
Mon 08:49:57 AM 34.7736 -85.0022 319° Northwest 368 423 22,100 883 Climbing Atlanta Center
Mon 08:52:14 AM 34.9467 -85.2169 315° West 406 467 24,000 579 Climbing Memphis Center
Mon 08:53:14 AM 35.0344 -85.3231 315° West 430 495 24,000  Level Memphis Center
Mon 08:54:14 AM 35.1300 -85.4189 321° Northwest 438 504 24,000 -750 Level Memphis Center
Mon 08:55:14 AM 35.2250 -85.4997 325° Northwest 433 498 22,500 -1,650 Descending Memphis Center
Mon 08:56:14 AM 35.3039 -85.5944 316° Northwest 410 472 20,700 -1,850 Descending Memphis Center
Mon 08:57:14 AM 35.3700 -85.6900 310° West 384 442 18,800 -1,800 Descending Memphis Center
Mon 08:58:14 AM 35.4422 -85.7828 314° West 379 436 17,100 -1,800 Descending Memphis Center
Mon 08:59:14 AM 35.5169 -85.8806 313° West 384 442 15,200 -1,900 Descending Memphis Center
Mon 09:00:14 AM 35.5886 -85.9661 316° Northwest 378 435 13,300 -1,800 Descending Memphis Center
Mon 09:01:14 AM 35.6711 -86.0586 318° Northwest 370 426 11,600 -1,200 Descending Memphis Center
Mon 09:02:14 AM 35.7406 -86.1394 317° Northwest 355 409 10,900 -300 Descending Memphis Center
Mon 09:03:14 AM 35.7978 -86.2236 310° West 355 409 11,000 -50 Climbing Memphis Center
Mon 09:04:14 AM 35.8592 -86.3153 310° West 355 409 10,800 -650 Descending Memphis Center
Mon 09:05:14 AM 35.9158 -86.3894 313° West 323 372 9,700 -1,400 Descending Memphis Center
Mon 09:06:14 AM 35.9681 -86.4611 312° West 294 338 8,000 -1,700 Descending Memphis Center
Mon 09:07:14 AM 36.0183 -86.5333 311° West 281 323 6,300 -1,400 Descending Memphis Center
Mon 09:08:14 AM 36.0800 -86.5767 330° Northwest 249 287 5,200 -1,400 Descending Memphis Center
Mon 09:09:14 AM 36.1503 -86.5528 15° North 244 281 3,500 -1,250 Descending Memphis Center
Mon 09:10:14 AM 36.2053 -86.5836 336° Northwest 199 229 2,700 -797 Descending Memphis Center
Mon 09:11:52 AM 36.1833 -86.6667 252° West 139 160 1,400 -667 Descending Nashville TRACON
Mon 09:13:14 AM 36.1358 -86.6975 208° Southwest 126 145 700 -512 Descending Memphis Center
Mon 09:15:00 AM 36.1245 -86.6782 141° Southeast  Level Estimated
Mon 09:22:00 AM 36.1245 -86.6782 141° Southeast  Level Estimated
Mon 09:23:00 AM 36.1245 -86.6782 141° Southeast  Level Estimated
Mon 09:24:00 AM 36.1245 -86.6782 141° Southeast  Level Estimated

Login

Don't have an account? Register now (free) for customized features, flight alerts, and more!